weather.gov     
National Weather Service

Terminal Aerodrome Forecast
NWS Homepage
This page is being discontinued on March 12, 2014.
The same data is available at this site. Please update your bookmarks.
Thank you, and we apologize for the inconvenience.
Please send an email to SR-SRH.Webmaster@noaa.gov with any concerns.


Current Version
Previous Version:    01  02  03  04  05  06  07  08  09  10  11  12  13  14  15  16  17  18  19  20  21  22  23  24  25  26  27  28  29  30  
   31  32  33  34  35  36  37  38  39  40  41  42  43  44  45  
[Printable]
521
FTUS44 KLCH 021100
TAFARA
TAF
KARA 021123Z 0212/0312 12003KT 4SM BR VCSH BKN002
      TEMPO 0212/0213 1SM BR
     FM021400 17007KT P6SM VCSH SCT012 BKN025
      TEMPO 0214/0215 BKN012 OVC025
     FM021700 19010G18KT P6SM VCTS SCT030CB BKN050
     FM030200 18006KT P6SM VCSH BKN015
     FM030800 20008KT P6SM VCSH SCT009 BKN012 PROB30 0308/0312 4SM
      -SHRA=


U.S. Dept. of Commerce
NOAA National Weather Service
1325 East West Highway
Silver Spring, MD 20910
E-mail: w-nws.webmaster@noaa.gov
Page last modified: May 16, 2007
NATIONAL WEATHER SERVICE: for Safety, for Work, for Fun - FOR LIFE